sensor_id;sensor_type;location;lat;lon;timestamp;P1;durP1;ratioP1;P2;durP2;ratioP2
36815;SDS011;71982;52.294;6.760;2023-11-21T00:00:12;49.67;;;21.80;;
36815;SDS011;71982;52.294;6.760;2023-11-21T00:02:40;45.95;;;20.80;;
36815;SDS011;71982;52.294;6.760;2023-11-21T00:05:08;49.67;;;23.35;;
36815;SDS011;71982;52.294;6.760;2023-11-21T00:07:36;50.17;;;22.83;;
36815;SDS011;71982;52.294;6.760;2023-11-21T00:10:03;48.28;;;22.02;;
36815;SDS011;71982;52.294;6.760;2023-11-21T00:12:31;52.75;;;24.27;;
36815;SDS011;71982;52.294;6.760;2023-11-21T00:14:58;54.05;;;22.70;;
36815;SDS011;71982;52.294;6.760;2023-11-21T00:17:25;55.45;;;23.50;;
36815;SDS011;71982;52.294;6.760;2023-11-21T00:19:52;43.22;;;22.50;;
36815;SDS011;71982;52.294;6.760;2023-11-21T00:22:20;53.15;;;24.02;;
36815;SDS011;71982;52.294;6.760;2023-11-21T00:24:47;51.83;;;23.70;;
36815;SDS011;71982;52.294;6.760;2023-11-21T00:27:13;51.15;;;23.63;;
36815;SDS011;71982;52.294;6.760;2023-11-21T00:29:40;52.72;;;24.05;;
36815;SDS011;71982;52.294;6.760;2023-11-21T00:32:07;47.17;;;22.23;;
36815;SDS011;71982;52.294;6.760;2023-11-21T00:34:34;55.30;;;24.00;;
36815;SDS011;71982;52.294;6.760;2023-11-21T00:37:00;46.50;;;21.83;;
36815;SDS011;71982;52.294;6.760;2023-11-21T00:39:29;56.78;;;24.77;;
36815;SDS011;71982;52.294;6.760;2023-11-21T00:41:58;51.92;;;24.13;;
36815;SDS011;71982;52.294;6.760;2023-11-21T00:44:24;54.15;;;23.35;;
36815;SDS011;71982;52.294;6.760;2023-11-21T00:46:51;55.13;;;23.83;;
36815;SDS011;71982;52.294;6.760;2023-11-21T00:49:18;53.03;;;22.70;;
36815;SDS011;71982;52.294;6.760;2023-11-21T00:51:45;52.60;;;23.55;;
36815;SDS011;71982;52.294;6.760;2023-11-21T00:54:12;59.17;;;25.13;;
36815;SDS011;71982;52.294;6.760;2023-11-21T00:56:43;61.30;;;25.17;;
36815;SDS011;71982;52.294;6.760;2023-11-21T00:59:12;54.83;;;24.13;;
36815;SDS011;71982;52.294;6.760;2023-11-21T01:01:39;53.15;;;23.52;;
36815;SDS011;71982;52.294;6.760;2023-11-21T01:04:05;49.25;;;23.48;;
36815;SDS011;71982;52.294;6.760;2023-11-21T01:06:32;59.15;;;25.52;;
36815;SDS011;71982;52.294;6.760;2023-11-21T01:08:59;63.67;;;27.73;;
36815;SDS011;71982;52.294;6.760;2023-11-21T01:11:26;54.40;;;26.20;;
36815;SDS011;71982;52.294;6.760;2023-11-21T01:13:54;65.63;;;27.55;;
36815;SDS011;71982;52.294;6.760;2023-11-21T01:16:21;60.05;;;27.35;;
36815;SDS011;71982;52.294;6.760;2023-11-21T01:18:49;62.60;;;27.02;;
36815;SDS011;71982;52.294;6.760;2023-11-21T01:21:16;66.55;;;28.75;;
36815;SDS011;71982;52.294;6.760;2023-11-21T01:23:43;59.30;;;26.25;;
36815;SDS011;71982;52.294;6.760;2023-11-21T01:26:08;65.43;;;26.45;;
36815;SDS011;71982;52.294;6.760;2023-11-21T01:28:35;61.13;;;27.13;;
36815;SDS011;71982;52.294;6.760;2023-11-21T01:31:03;68.65;;;29.05;;
36815;SDS011;71982;52.294;6.760;2023-11-21T01:33:32;71.95;;;29.75;;
36815;SDS011;71982;52.294;6.760;2023-11-21T01:35:58;75.55;;;30.95;;
36815;SDS011;71982;52.294;6.760;2023-11-21T01:38:25;69.78;;;28.83;;
36815;SDS011;71982;52.294;6.760;2023-11-21T01:40:52;66.35;;;29.83;;
36815;SDS011;71982;52.294;6.760;2023-11-21T01:43:19;67.75;;;30.15;;
36815;SDS011;71982;52.294;6.760;2023-11-21T01:45:46;61.67;;;28.23;;
36815;SDS011;71982;52.294;6.760;2023-11-21T01:48:14;69.50;;;30.65;;
36815;SDS011;71982;52.294;6.760;2023-11-21T01:50:41;61.45;;;28.17;;
36815;SDS011;71982;52.294;6.760;2023-11-21T01:53:10;65.68;;;29.50;;
36815;SDS011;71982;52.294;6.760;2023-11-21T01:55:38;60.83;;;26.70;;
36815;SDS011;71982;52.294;6.760;2023-11-21T01:58:07;60.13;;;28.90;;
36815;SDS011;71982;52.294;6.760;2023-11-21T02:00:34;57.78;;;28.27;;
36815;SDS011;71982;52.294;6.760;2023-11-21T02:03:03;77.18;;;30.15;;
36815;SDS011;71982;52.294;6.760;2023-11-21T02:05:33;72.70;;;30.00;;
36815;SDS011;71982;52.294;6.760;2023-11-21T02:08:00;67.25;;;30.02;;
36815;SDS011;71982;52.294;6.760;2023-11-21T02:10:27;64.43;;;30.48;;
36815;SDS011;71982;52.294;6.760;2023-11-21T02:12:56;67.80;;;31.40;;
36815;SDS011;71982;52.294;6.760;2023-11-21T02:15:23;65.15;;;31.45;;
36815;SDS011;71982;52.294;6.760;2023-11-21T02:17:53;67.53;;;31.90;;
36815;SDS011;71982;52.294;6.760;2023-11-21T02:20:20;76.20;;;30.83;;
36815;SDS011;71982;52.294;6.760;2023-11-21T02:22:51;65.55;;;30.27;;
36815;SDS011;71982;52.294;6.760;2023-11-21T02:25:22;64.32;;;30.73;;
36815;SDS011;71982;52.294;6.760;2023-11-21T02:27:49;77.55;;;31.50;;
36815;SDS011;71982;52.294;6.760;2023-11-21T02:30:16;64.13;;;29.67;;
36815;SDS011;71982;52.294;6.760;2023-11-21T02:32:43;70.45;;;30.83;;
36815;SDS011;71982;52.294;6.760;2023-11-21T02:35:11;65.38;;;30.08;;
36815;SDS011;71982;52.294;6.760;2023-11-21T02:37:38;73.07;;;31.88;;
36815;SDS011;71982;52.294;6.760;2023-11-21T02:40:08;60.38;;;29.05;;
36815;SDS011;71982;52.294;6.760;2023-11-21T02:42:37;63.58;;;28.23;;
36815;SDS011;71982;52.294;6.760;2023-11-21T02:45:04;72.40;;;30.60;;
36815;SDS011;71982;52.294;6.760;2023-11-21T02:47:32;70.57;;;32.05;;
36815;SDS011;71982;52.294;6.760;2023-11-21T02:49:59;74.55;;;32.28;;
36815;SDS011;71982;52.294;6.760;2023-11-21T02:52:25;69.28;;;28.13;;
36815;SDS011;71982;52.294;6.760;2023-11-21T02:54:52;77.30;;;32.00;;
36815;SDS011;71982;52.294;6.760;2023-11-21T02:57:20;73.80;;;33.42;;
36815;SDS011;71982;52.294;6.760;2023-11-21T02:59:47;75.97;;;31.92;;
36815;SDS011;71982;52.294;6.760;2023-11-21T03:02:15;82.88;;;34.25;;
36815;SDS011;71982;52.294;6.760;2023-11-21T03:04:42;80.03;;;32.40;;
36815;SDS011;71982;52.294;6.760;2023-11-21T03:07:09;83.90;;;34.78;;
36815;SDS011;71982;52.294;6.760;2023-11-21T03:09:36;69.25;;;32.55;;
36815;SDS011;71982;52.294;6.760;2023-11-21T03:12:03;68.82;;;30.27;;
36815;SDS011;71982;52.294;6.760;2023-11-21T03:14:31;75.72;;;32.92;;
36815;SDS011;71982;52.294;6.760;2023-11-21T03:16:58;73.20;;;32.05;;
36815;SDS011;71982;52.294;6.760;2023-11-21T03:19:25;73.60;;;31.77;;
36815;SDS011;71982;52.294;6.760;2023-11-21T03:21:52;68.15;;;30.50;;
36815;SDS011;71982;52.294;6.760;2023-11-21T03:24:19;70.88;;;32.35;;
36815;SDS011;71982;52.294;6.760;2023-11-21T03:26:47;60.88;;;29.40;;
36815;SDS011;71982;52.294;6.760;2023-11-21T03:29:15;63.90;;;30.00;;
36815;SDS011;71982;52.294;6.760;2023-11-21T03:31:43;64.97;;;30.85;;
36815;SDS011;71982;52.294;6.760;2023-11-21T03:34:14;68.53;;;31.00;;
36815;SDS011;71982;52.294;6.760;2023-11-21T03:39:09;67.28;;;30.35;;
36815;SDS011;71982;52.294;6.760;2023-11-21T03:41:36;67.53;;;31.20;;
36815;SDS011;71982;52.294;6.760;2023-11-21T03:44:03;70.88;;;30.50;;
36815;SDS011;71982;52.294;6.760;2023-11-21T03:46:30;74.30;;;32.78;;
36815;SDS011;71982;52.294;6.760;2023-11-21T03:48:58;83.70;;;35.13;;
36815;SDS011;71982;52.294;6.760;2023-11-21T03:51:24;77.45;;;34.13;;
36815;SDS011;71982;52.294;6.760;2023-11-21T03:53:51;76.22;;;32.92;;
36815;SDS011;71982;52.294;6.760;2023-11-21T03:56:18;63.75;;;31.08;;
36815;SDS011;71982;52.294;6.760;2023-11-21T03:58:46;65.43;;;30.05;;
36815;SDS011;71982;52.294;6.760;2023-11-21T04:01:18;74.97;;;32.00;;
36815;SDS011;71982;52.294;6.760;2023-11-21T04:03:46;76.93;;;33.47;;
36815;SDS011;71982;52.294;6.760;2023-11-21T04:06:15;67.70;;;31.45;;
36815;SDS011;71982;52.294;6.760;2023-11-21T04:08:42;69.72;;;30.65;;
36815;SDS011;71982;52.294;6.760;2023-11-21T04:11:09;67.72;;;29.85;;
36815;SDS011;71982;52.294;6.760;2023-11-21T04:13:36;75.90;;;31.08;;
36815;SDS011;71982;52.294;6.760;2023-11-21T04:16:03;70.47;;;29.35;;
36815;SDS011;71982;52.294;6.760;2023-11-21T04:18:31;80.20;;;31.40;;
36815;SDS011;71982;52.294;6.760;2023-11-21T04:20:58;75.40;;;32.30;;
36815;SDS011;71982;52.294;6.760;2023-11-21T04:23:27;79.65;;;32.72;;
36815;SDS011;71982;52.294;6.760;2023-11-21T04:25:55;75.65;;;31.55;;
36815;SDS011;71982;52.294;6.760;2023-11-21T04:28:22;68.43;;;31.75;;
36815;SDS011;71982;52.294;6.760;2023-11-21T04:30:49;82.82;;;33.47;;
36815;SDS011;71982;52.294;6.760;2023-11-21T04:33:16;78.82;;;32.17;;
36815;SDS011;71982;52.294;6.760;2023-11-21T04:35:43;74.10;;;30.83;;
36815;SDS011;71982;52.294;6.760;2023-11-21T04:38:10;80.68;;;32.08;;
36815;SDS011;71982;52.294;6.760;2023-11-21T04:40:38;87.10;;;33.17;;
36815;SDS011;71982;52.294;6.760;2023-11-21T04:43:03;69.40;;;31.40;;
36815;SDS011;71982;52.294;6.760;2023-11-21T04:45:31;76.63;;;31.98;;
36815;SDS011;71982;52.294;6.760;2023-11-21T04:47:58;108.47;;;33.70;;
36815;SDS011;71982;52.294;6.760;2023-11-21T04:50:25;73.72;;;32.03;;
36815;SDS011;71982;52.294;6.760;2023-11-21T04:52:52;85.97;;;33.88;;
36815;SDS011;71982;52.294;6.760;2023-11-21T04:55:19;123.30;;;34.70;;
36815;SDS011;71982;52.294;6.760;2023-11-21T04:57:47;64.97;;;31.75;;
36815;SDS011;71982;52.294;6.760;2023-11-21T05:00:14;125.38;;;32.80;;
36815;SDS011;71982;52.294;6.760;2023-11-21T05:02:41;196.88;;;34.90;;
36815;SDS011;71982;52.294;6.760;2023-11-21T05:05:09;89.30;;;30.50;;
36815;SDS011;71982;52.294;6.760;2023-11-21T05:07:36;66.80;;;30.00;;
36815;SDS011;71982;52.294;6.760;2023-11-21T05:10:04;59.22;;;29.33;;
36815;SDS011;71982;52.294;6.760;2023-11-21T05:12:35;59.03;;;28.38;;
36815;SDS011;71982;52.294;6.760;2023-11-21T05:15:05;59.08;;;31.05;;
36815;SDS011;71982;52.294;6.760;2023-11-21T05:17:36;103.07;;;30.20;;
36815;SDS011;71982;52.294;6.760;2023-11-21T05:20:04;53.88;;;28.10;;
36815;SDS011;71982;52.294;6.760;2023-11-21T05:22:34;59.72;;;28.58;;
36815;SDS011;71982;52.294;6.760;2023-11-21T05:25:01;59.60;;;30.05;;
36815;SDS011;71982;52.294;6.760;2023-11-21T05:27:28;59.58;;;29.15;;
36815;SDS011;71982;52.294;6.760;2023-11-21T05:29:55;67.97;;;28.42;;
36815;SDS011;71982;52.294;6.760;2023-11-21T05:32:23;57.40;;;29.67;;
36815;SDS011;71982;52.294;6.760;2023-11-21T05:34:50;56.55;;;29.23;;
36815;SDS011;71982;52.294;6.760;2023-11-21T05:37:16;55.80;;;27.05;;
36815;SDS011;71982;52.294;6.760;2023-11-21T05:39:43;64.97;;;28.63;;
36815;SDS011;71982;52.294;6.760;2023-11-21T05:42:10;56.13;;;29.63;;
36815;SDS011;71982;52.294;6.760;2023-11-21T05:44:37;60.58;;;28.23;;
36815;SDS011;71982;52.294;6.760;2023-11-21T05:47:08;66.35;;;28.70;;
36815;SDS011;71982;52.294;6.760;2023-11-21T05:49:36;56.03;;;27.52;;
36815;SDS011;71982;52.294;6.760;2023-11-21T05:52:03;56.03;;;27.52;;
36815;SDS011;71982;52.294;6.760;2023-11-21T05:54:31;51.30;;;27.70;;
36815;SDS011;71982;52.294;6.760;2023-11-21T05:56:58;58.38;;;29.50;;
36815;SDS011;71982;52.294;6.760;2023-11-21T05:59:25;65.18;;;30.30;;
36815;SDS011;71982;52.294;6.760;2023-11-21T06:01:52;72.60;;;29.98;;
36815;SDS011;71982;52.294;6.760;2023-11-21T06:04:19;75.82;;;29.58;;
36815;SDS011;71982;52.294;6.760;2023-11-21T06:06:50;76.05;;;32.70;;
36815;SDS011;71982;52.294;6.760;2023-11-21T06:09:17;85.07;;;32.17;;
36815;SDS011;71982;52.294;6.760;2023-11-21T06:11:44;70.95;;;31.60;;
36815;SDS011;71982;52.294;6.760;2023-11-21T06:14:10;76.60;;;32.70;;
36815;SDS011;71982;52.294;6.760;2023-11-21T06:16:37;82.30;;;33.53;;
36815;SDS011;71982;52.294;6.760;2023-11-21T06:19:05;66.57;;;31.95;;
36815;SDS011;71982;52.294;6.760;2023-11-21T06:21:32;67.72;;;31.02;;
36815;SDS011;71982;52.294;6.760;2023-11-21T06:24:00;81.00;;;32.17;;
36815;SDS011;71982;52.294;6.760;2023-11-21T06:26:27;75.57;;;33.38;;
36815;SDS011;71982;52.294;6.760;2023-11-21T06:28:54;72.13;;;31.95;;
36815;SDS011;71982;52.294;6.760;2023-11-21T06:31:22;69.60;;;31.20;;
36815;SDS011;71982;52.294;6.760;2023-11-21T06:33:48;64.07;;;30.50;;
36815;SDS011;71982;52.294;6.760;2023-11-21T06:36:17;64.00;;;29.38;;
36815;SDS011;71982;52.294;6.760;2023-11-21T06:38:43;65.88;;;28.52;;
36815;SDS011;71982;52.294;6.760;2023-11-21T06:41:12;60.35;;;30.85;;
36815;SDS011;71982;52.294;6.760;2023-11-21T06:43:40;63.55;;;30.33;;
36815;SDS011;71982;52.294;6.760;2023-11-21T06:46:10;63.28;;;29.23;;
36815;SDS011;71982;52.294;6.760;2023-11-21T06:48:39;64.57;;;30.92;;
36815;SDS011;71982;52.294;6.760;2023-11-21T06:51:08;65.30;;;30.88;;
36815;SDS011;71982;52.294;6.760;2023-11-21T06:53:35;67.78;;;30.42;;
36815;SDS011;71982;52.294;6.760;2023-11-21T06:56:02;65.85;;;30.75;;
36815;SDS011;71982;52.294;6.760;2023-11-21T06:58:32;60.33;;;28.17;;
36815;SDS011;71982;52.294;6.760;2023-11-21T07:01:00;54.13;;;26.13;;
36815;SDS011;71982;52.294;6.760;2023-11-21T07:03:26;61.22;;;27.75;;
36815;SDS011;71982;52.294;6.760;2023-11-21T07:05:53;67.32;;;30.27;;
36815;SDS011;71982;52.294;6.760;2023-11-21T07:08:20;64.38;;;29.48;;
36815;SDS011;71982;52.294;6.760;2023-11-21T07:10:47;55.05;;;27.10;;
36815;SDS011;71982;52.294;6.760;2023-11-21T07:13:14;52.33;;;26.75;;
36815;SDS011;71982;52.294;6.760;2023-11-21T07:15:42;56.97;;;26.83;;
36815;SDS011;71982;52.294;6.760;2023-11-21T07:18:09;61.00;;;27.83;;
36815;SDS011;71982;52.294;6.760;2023-11-21T07:20:36;53.95;;;27.98;;
36815;SDS011;71982;52.294;6.760;2023-11-21T07:23:03;56.40;;;27.35;;
36815;SDS011;71982;52.294;6.760;2023-11-21T07:25:30;58.20;;;28.08;;
36815;SDS011;71982;52.294;6.760;2023-11-21T07:27:58;54.58;;;25.67;;
36815;SDS011;71982;52.294;6.760;2023-11-21T07:30:25;51.53;;;26.08;;
36815;SDS011;71982;52.294;6.760;2023-11-21T07:32:53;58.83;;;28.65;;
36815;SDS011;71982;52.294;6.760;2023-11-21T07:35:20;56.80;;;27.05;;
36815;SDS011;71982;52.294;6.760;2023-11-21T07:37:47;60.80;;;27.13;;
36815;SDS011;71982;52.294;6.760;2023-11-21T07:40:14;55.15;;;26.70;;
36815;SDS011;71982;52.294;6.760;2023-11-21T07:42:42;52.85;;;27.05;;
36815;SDS011;71982;52.294;6.760;2023-11-21T07:45:09;52.50;;;25.55;;
36815;SDS011;71982;52.294;6.760;2023-11-21T07:47:36;53.47;;;26.55;;
36815;SDS011;71982;52.294;6.760;2023-11-21T07:50:06;51.80;;;25.35;;
36815;SDS011;71982;52.294;6.760;2023-11-21T07:52:33;52.50;;;25.45;;
36815;SDS011;71982;52.294;6.760;2023-11-21T07:55:00;47.80;;;25.23;;
36815;SDS011;71982;52.294;6.760;2023-11-21T07:57:27;48.40;;;24.25;;
36815;SDS011;71982;52.294;6.760;2023-11-21T07:59:54;52.38;;;25.88;;
36815;SDS011;71982;52.294;6.760;2023-11-21T08:02:21;48.55;;;24.30;;
36815;SDS011;71982;52.294;6.760;2023-11-21T08:04:48;50.65;;;25.55;;
36815;SDS011;71982;52.294;6.760;2023-11-21T08:07:17;51.28;;;25.67;;
36815;SDS011;71982;52.294;6.760;2023-11-21T08:09:44;53.75;;;26.20;;
36815;SDS011;71982;52.294;6.760;2023-11-21T08:12:11;45.42;;;23.92;;
36815;SDS011;71982;52.294;6.760;2023-11-21T08:14:40;49.08;;;24.58;;
36815;SDS011;71982;52.294;6.760;2023-11-21T08:17:07;41.97;;;23.73;;
36815;SDS011;71982;52.294;6.760;2023-11-21T08:19:35;48.13;;;25.40;;
36815;SDS011;71982;52.294;6.760;2023-11-21T08:22:02;52.60;;;26.38;;
36815;SDS011;71982;52.294;6.760;2023-11-21T08:24:30;53.78;;;25.92;;
36815;SDS011;71982;52.294;6.760;2023-11-21T08:26:57;55.13;;;27.88;;
36815;SDS011;71982;52.294;6.760;2023-11-21T08:29:24;60.97;;;30.00;;
36815;SDS011;71982;52.294;6.760;2023-11-21T08:31:51;60.30;;;29.25;;
36815;SDS011;71982;52.294;6.760;2023-11-21T08:34:18;57.28;;;28.77;;
36815;SDS011;71982;52.294;6.760;2023-11-21T08:36:45;53.25;;;25.25;;
36815;SDS011;71982;52.294;6.760;2023-11-21T08:39:12;56.67;;;26.73;;
36815;SDS011;71982;52.294;6.760;2023-11-21T08:41:42;54.42;;;27.05;;
36815;SDS011;71982;52.294;6.760;2023-11-21T08:44:09;58.00;;;27.92;;
36815;SDS011;71982;52.294;6.760;2023-11-21T08:46:36;57.53;;;27.63;;
36815;SDS011;71982;52.294;6.760;2023-11-21T08:49:04;56.78;;;27.85;;
36815;SDS011;71982;52.294;6.760;2023-11-21T08:51:31;62.35;;;27.48;;
36815;SDS011;71982;52.294;6.760;2023-11-21T08:53:58;51.67;;;26.02;;
36815;SDS011;71982;52.294;6.760;2023-11-21T08:56:25;59.53;;;28.73;;
36815;SDS011;71982;52.294;6.760;2023-11-21T08:58:54;63.00;;;28.23;;
36815;SDS011;71982;52.294;6.760;2023-11-21T09:01:22;55.92;;;27.30;;
36815;SDS011;71982;52.294;6.760;2023-11-21T09:03:50;62.13;;;27.23;;
36815;SDS011;71982;52.294;6.760;2023-11-21T09:06:16;64.68;;;30.08;;
36815;SDS011;71982;52.294;6.760;2023-11-21T09:08:44;60.03;;;27.88;;
36815;SDS011;71982;52.294;6.760;2023-11-21T09:11:11;57.17;;;27.48;;
36815;SDS011;71982;52.294;6.760;2023-11-21T09:13:38;62.15;;;28.25;;
36815;SDS011;71982;52.294;6.760;2023-11-21T09:16:07;56.75;;;26.70;;
36815;SDS011;71982;52.294;6.760;2023-11-21T09:18:34;69.90;;;28.55;;
36815;SDS011;71982;52.294;6.760;2023-11-21T09:21:00;52.17;;;25.92;;
36815;SDS011;71982;52.294;6.760;2023-11-21T09:23:27;57.53;;;27.50;;
36815;SDS011;71982;52.294;6.760;2023-11-21T09:25:54;55.03;;;25.25;;
36815;SDS011;71982;52.294;6.760;2023-11-21T09:28:22;54.25;;;27.25;;
36815;SDS011;71982;52.294;6.760;2023-11-21T09:30:49;51.28;;;26.80;;
36815;SDS011;71982;52.294;6.760;2023-11-21T09:33:17;42.67;;;23.65;;
36815;SDS011;71982;52.294;6.760;2023-11-21T09:35:44;44.78;;;22.73;;
36815;SDS011;71982;52.294;6.760;2023-11-21T09:38:10;54.47;;;25.55;;
36815;SDS011;71982;52.294;6.760;2023-11-21T09:40:37;48.70;;;24.42;;
36815;SDS011;71982;52.294;6.760;2023-11-21T09:43:05;39.67;;;22.70;;
36815;SDS011;71982;52.294;6.760;2023-11-21T09:45:34;45.50;;;23.92;;
36815;SDS011;71982;52.294;6.760;2023-11-21T09:48:05;38.78;;;22.05;;
36815;SDS011;71982;52.294;6.760;2023-11-21T09:50:34;40.30;;;21.42;;
36815;SDS011;71982;52.294;6.760;2023-11-21T09:53:05;45.55;;;23.13;;
36815;SDS011;71982;52.294;6.760;2023-11-21T09:55:39;38.47;;;20.95;;
36815;SDS011;71982;52.294;6.760;2023-11-21T09:58:09;40.70;;;22.00;;
36815;SDS011;71982;52.294;6.760;2023-11-21T10:00:39;36.60;;;20.95;;
36815;SDS011;71982;52.294;6.760;2023-11-21T10:03:07;41.58;;;21.67;;
36815;SDS011;71982;52.294;6.760;2023-11-21T10:05:35;43.55;;;21.00;;
36815;SDS011;71982;52.294;6.760;2023-11-21T10:08:03;41.70;;;20.98;;
36815;SDS011;71982;52.294;6.760;2023-11-21T10:10:34;43.80;;;19.80;;
36815;SDS011;71982;52.294;6.760;2023-11-21T10:13:02;53.63;;;22.67;;
36815;SDS011;71982;52.294;6.760;2023-11-21T10:15:31;37.40;;;20.58;;
36815;SDS011;71982;52.294;6.760;2023-11-21T10:18:01;37.88;;;20.35;;
36815;SDS011;71982;52.294;6.760;2023-11-21T10:20:29;37.60;;;19.52;;
36815;SDS011;71982;52.294;6.760;2023-11-21T10:23:00;35.80;;;18.95;;
36815;SDS011;71982;52.294;6.760;2023-11-21T10:25:28;38.85;;;20.70;;
36815;SDS011;71982;52.294;6.760;2023-11-21T10:27:57;41.45;;;21.00;;
36815;SDS011;71982;52.294;6.760;2023-11-21T10:30:27;35.30;;;20.60;;
36815;SDS011;71982;52.294;6.760;2023-11-21T10:32:58;38.45;;;18.48;;
36815;SDS011;71982;52.294;6.760;2023-11-21T10:35:25;33.28;;;17.85;;
36815;SDS011;71982;52.294;6.760;2023-11-21T10:38:06;34.03;;;16.73;;
36815;SDS011;71982;52.294;6.760;2023-11-21T10:40:37;32.22;;;17.55;;
36815;SDS011;71982;52.294;6.760;2023-11-21T10:43:06;36.65;;;18.58;;
36815;SDS011;71982;52.294;6.760;2023-11-21T10:45:34;31.80;;;18.20;;
36815;SDS011;71982;52.294;6.760;2023-11-21T10:48:04;32.08;;;17.20;;
36815;SDS011;71982;52.294;6.760;2023-11-21T10:50:32;32.20;;;18.00;;
36815;SDS011;71982;52.294;6.760;2023-11-21T10:53:01;32.55;;;17.05;;
36815;SDS011;71982;52.294;6.760;2023-11-21T10:55:30;32.10;;;17.42;;
36815;SDS011;71982;52.294;6.760;2023-11-21T10:57:58;29.80;;;16.92;;
36815;SDS011;71982;52.294;6.760;2023-11-21T11:00:27;30.52;;;16.48;;
36815;SDS011;71982;52.294;6.760;2023-11-21T11:02:55;34.58;;;18.17;;
36815;SDS011;71982;52.294;6.760;2023-11-21T11:05:24;35.10;;;18.92;;
36815;SDS011;71982;52.294;6.760;2023-11-21T11:07:52;35.38;;;19.35;;
36815;SDS011;71982;52.294;6.760;2023-11-21T11:10:26;35.15;;;17.98;;
36815;SDS011;71982;52.294;6.760;2023-11-21T11:12:55;34.33;;;18.92;;
36815;SDS011;71982;52.294;6.760;2023-11-21T11:15:23;30.05;;;17.88;;
36815;SDS011;71982;52.294;6.760;2023-11-21T11:17:50;34.33;;;19.17;;
36815;SDS011;71982;52.294;6.760;2023-11-21T11:20:22;37.83;;;19.97;;
36815;SDS011;71982;52.294;6.760;2023-11-21T11:22:50;34.67;;;20.17;;
36815;SDS011;71982;52.294;6.760;2023-11-21T11:25:28;34.38;;;19.02;;
36815;SDS011;71982;52.294;6.760;2023-11-21T11:28:06;36.33;;;18.30;;
36815;SDS011;71982;52.294;6.760;2023-11-21T11:30:39;38.78;;;19.42;;
36815;SDS011;71982;52.294;6.760;2023-11-21T11:33:14;41.33;;;20.50;;
36815;SDS011;71982;52.294;6.760;2023-11-21T11:35:52;42.20;;;20.02;;
36815;SDS011;71982;52.294;6.760;2023-11-21T11:38:26;38.50;;;20.58;;
36815;SDS011;71982;52.294;6.760;2023-11-21T11:40:57;35.03;;;18.80;;
36815;SDS011;71982;52.294;6.760;2023-11-21T11:43:29;43.92;;;21.50;;
36815;SDS011;71982;52.294;6.760;2023-11-21T11:45:58;39.78;;;19.02;;
36815;SDS011;71982;52.294;6.760;2023-11-21T11:48:25;34.75;;;18.23;;
36815;SDS011;71982;52.294;6.760;2023-11-21T11:51:01;30.60;;;17.48;;
36815;SDS011;71982;52.294;6.760;2023-11-21T11:53:33;33.97;;;17.60;;
36815;SDS011;71982;52.294;6.760;2023-11-21T11:58:52;25.98;;;15.93;;
36815;SDS011;71982;52.294;6.760;2023-11-21T12:01:20;24.42;;;14.10;;
36815;SDS011;71982;52.294;6.760;2023-11-21T12:07:00;24.65;;;14.57;;
36815;SDS011;71982;52.294;6.760;2023-11-21T12:09:28;25.45;;;15.05;;
36815;SDS011;71982;52.294;6.760;2023-11-21T12:11:57;26.65;;;14.27;;
36815;SDS011;71982;52.294;6.760;2023-11-21T12:14:26;25.90;;;14.73;;
36815;SDS011;71982;52.294;6.760;2023-11-21T12:16:53;25.67;;;15.50;;
36815;SDS011;71982;52.294;6.760;2023-11-21T12:19:20;31.90;;;17.30;;
36815;SDS011;71982;52.294;6.760;2023-11-21T12:21:48;27.55;;;16.27;;
36815;SDS011;71982;52.294;6.760;2023-11-21T12:24:15;29.63;;;16.10;;
36815;SDS011;71982;52.294;6.760;2023-11-21T12:26:42;29.25;;;16.38;;
36815;SDS011;71982;52.294;6.760;2023-11-21T12:29:10;32.35;;;16.65;;
36815;SDS011;71982;52.294;6.760;2023-11-21T12:31:38;32.95;;;15.88;;
36815;SDS011;71982;52.294;6.760;2023-11-21T12:34:06;31.35;;;16.42;;
36815;SDS011;71982;52.294;6.760;2023-11-21T12:36:34;30.70;;;16.50;;
36815;SDS011;71982;52.294;6.760;2023-11-21T12:39:01;26.63;;;16.23;;
36815;SDS011;71982;52.294;6.760;2023-11-21T12:41:28;25.35;;;15.50;;
36815;SDS011;71982;52.294;6.760;2023-11-21T12:43:56;28.70;;;16.70;;
36815;SDS011;71982;52.294;6.760;2023-11-21T12:46:23;28.02;;;17.42;;
36815;SDS011;71982;52.294;6.760;2023-11-21T12:48:55;32.40;;;19.35;;
36815;SDS011;71982;52.294;6.760;2023-11-21T12:51:23;27.65;;;16.90;;
36815;SDS011;71982;52.294;6.760;2023-11-21T12:53:50;25.58;;;17.13;;
36815;SDS011;71982;52.294;6.760;2023-11-21T12:56:18;22.63;;;15.02;;
36815;SDS011;71982;52.294;6.760;2023-11-21T12:58:49;26.13;;;17.23;;
36815;SDS011;71982;52.294;6.760;2023-11-21T13:01:17;23.70;;;15.98;;
36815;SDS011;71982;52.294;6.760;2023-11-21T13:03:47;23.48;;;15.23;;
36815;SDS011;71982;52.294;6.760;2023-11-21T13:06:17;21.75;;;14.93;;
36815;SDS011;71982;52.294;6.760;2023-11-21T13:08:49;19.92;;;14.75;;
36815;SDS011;71982;52.294;6.760;2023-11-21T13:11:16;17.15;;;13.07;;
36815;SDS011;71982;52.294;6.760;2023-11-21T13:13:43;21.17;;;15.07;;
36815;SDS011;71982;52.294;6.760;2023-11-21T13:16:10;21.70;;;14.90;;
36815;SDS011;71982;52.294;6.760;2023-11-21T13:18:38;16.33;;;13.02;;
36815;SDS011;71982;52.294;6.760;2023-11-21T13:21:07;17.50;;;12.82;;
36815;SDS011;71982;52.294;6.760;2023-11-21T13:23:40;17.98;;;13.52;;
36815;SDS011;71982;52.294;6.760;2023-11-21T13:26:08;21.80;;;14.32;;
36815;SDS011;71982;52.294;6.760;2023-11-21T13:28:36;18.20;;;14.23;;
36815;SDS011;71982;52.294;6.760;2023-11-21T13:31:03;20.70;;;13.90;;
36815;SDS011;71982;52.294;6.760;2023-11-21T13:33:47;16.70;;;13.18;;
36815;SDS011;71982;52.294;6.760;2023-11-21T13:36:20;15.60;;;11.82;;
36815;SDS011;71982;52.294;6.760;2023-11-21T13:38:49;16.23;;;11.70;;
36815;SDS011;71982;52.294;6.760;2023-11-21T13:41:17;16.42;;;12.82;;
36815;SDS011;71982;52.294;6.760;2023-11-21T13:43:45;15.85;;;12.15;;
36815;SDS011;71982;52.294;6.760;2023-11-21T13:46:18;14.95;;;11.40;;
36815;SDS011;71982;52.294;6.760;2023-11-21T13:48:48;15.00;;;10.93;;
36815;SDS011;71982;52.294;6.760;2023-11-21T13:51:20;13.48;;;10.48;;
36815;SDS011;71982;52.294;6.760;2023-11-21T13:53:56;13.30;;;10.73;;
36815;SDS011;71982;52.294;6.760;2023-11-21T13:56:24;13.40;;;9.30;;
36815;SDS011;71982;52.294;6.760;2023-11-21T13:58:53;11.27;;;9.05;;
36815;SDS011;71982;52.294;6.760;2023-11-21T14:01:21;12.30;;;8.10;;
36815;SDS011;71982;52.294;6.760;2023-11-21T14:04:10;12.50;;;8.70;;
36815;SDS011;71982;52.294;6.760;2023-11-21T14:06:45;12.85;;;9.68;;
36815;SDS011;71982;52.294;6.760;2023-11-21T14:09:15;12.10;;;9.38;;
36815;SDS011;71982;52.294;6.760;2023-11-21T14:11:48;13.82;;;8.68;;
36815;SDS011;71982;52.294;6.760;2023-11-21T14:14:17;13.23;;;9.27;;
36815;SDS011;71982;52.294;6.760;2023-11-21T14:16:44;10.13;;;7.40;;
36815;SDS011;71982;52.294;6.760;2023-11-21T14:19:11;11.52;;;8.80;;
36815;SDS011;71982;52.294;6.760;2023-11-21T14:21:40;13.13;;;8.93;;
36815;SDS011;71982;52.294;6.760;2023-11-21T14:24:09;11.95;;;9.13;;
36815;SDS011;71982;52.294;6.760;2023-11-21T14:26:39;14.52;;;8.63;;
36815;SDS011;71982;52.294;6.760;2023-11-21T14:29:07;16.58;;;10.27;;
36815;SDS011;71982;52.294;6.760;2023-11-21T14:31:36;19.30;;;9.05;;
36815;SDS011;71982;52.294;6.760;2023-11-21T14:34:02;18.60;;;10.80;;